createdAt,value
2018-09-20T00:01:19.769Z,76.60
2018-09-20T00:03:47.476Z,76.60
2018-09-20T00:06:16.168Z,76.60
2018-09-20T00:08:43.883Z,76.60
2018-09-20T00:11:11.576Z,76.70
2018-09-20T00:13:40.363Z,77.10
2018-09-20T00:16:08.046Z,76.80
2018-09-20T00:18:36.674Z,76.70
2018-09-20T00:21:05.245Z,76.80
2018-09-20T00:23:35.464Z,77.20
2018-09-20T00:26:04.419Z,76.80
2018-09-20T00:28:34.495Z,76.70
2018-09-20T00:31:02.156Z,76.70
2018-09-20T00:33:30.777Z,76.70
2018-09-20T00:35:59.811Z,76.70
2018-09-20T00:38:28.406Z,76.80
2018-09-20T00:40:56.084Z,76.60
2018-09-20T00:43:24.008Z,76.70
2018-09-20T00:45:51.697Z,76.70
2018-09-20T00:48:19.907Z,76.60
2018-09-20T00:50:47.572Z,76.60
2018-09-20T00:53:15.264Z,76.60
2018-09-20T00:55:42.932Z,76.40
2018-09-20T00:58:10.600Z,76.60
2018-09-20T01:00:39.288Z,76.60
2018-09-20T01:03:06.955Z,76.50
2018-09-20T01:05:35.148Z,76.70
2018-09-20T01:08:03.453Z,76.60
2018-09-20T01:10:31.134Z,77.20
2018-09-20T01:12:58.797Z,76.40
2018-09-20T01:15:26.464Z,76.50
2018-09-20T01:17:54.144Z,76.60
2018-09-20T01:20:21.812Z,76.80
2018-09-20T01:22:49.472Z,76.80
2018-09-20T01:25:17.136Z,76.90
2018-09-20T01:27:44.813Z,76.80
2018-09-20T01:30:12.488Z,76.90
2018-09-20T01:32:40.189Z,76.90
2018-09-20T01:35:07.913Z,76.90
2018-09-20T01:37:35.577Z,76.90
2018-09-20T01:40:04.161Z,76.70
2018-09-20T01:42:31.871Z,76.90
2018-09-20T01:44:59.549Z,76.90
2018-09-20T01:47:27.224Z,76.90
2018-09-20T01:49:54.895Z,76.80
2018-09-20T01:52:22.614Z,76.80
2018-09-20T01:54:50.756Z,76.90
2018-09-20T01:57:18.499Z,76.90
2018-09-20T01:59:46.187Z,76.90
2018-09-20T02:02:13.958Z,76.90
2018-09-20T02:04:42.508Z,76.80
2018-09-20T02:07:10.193Z,76.90
2018-09-20T02:09:37.921Z,76.80
2018-09-20T02:12:05.588Z,76.90
2018-09-20T02:14:34.246Z,76.90
2018-09-20T02:17:01.928Z,76.80
2018-09-20T02:19:30.505Z,76.90
2018-09-20T02:21:59.061Z,76.90
2018-09-20T02:24:26.727Z,76.90
2018-09-20T02:26:54.396Z,76.90
2018-09-20T02:29:22.066Z,76.90
2018-09-20T02:31:50.808Z,76.90
2018-09-20T02:34:18.476Z,76.90
2018-09-20T02:36:47.036Z,76.80
2018-09-20T02:39:14.708Z,76.80
2018-09-20T02:41:42.409Z,76.90
2018-09-20T02:44:10.133Z,76.80
2018-09-20T02:46:39.011Z,76.90
2018-09-20T02:49:06.721Z,76.90
2018-09-20T02:51:34.948Z,76.90
2018-09-20T02:54:02.680Z,76.90
2018-09-20T02:56:31.356Z,76.90
2018-09-20T02:58:59.093Z,77.00
2018-09-20T03:01:27.719Z,77.00
2018-09-20T03:03:55.388Z,76.80
2018-09-20T03:06:23.079Z,76.90
2018-09-20T03:08:51.468Z,76.60
2018-09-20T03:11:19.146Z,76.40
2018-09-20T03:13:47.766Z,76.80
2018-09-20T03:16:15.477Z,77.00
2018-09-20T03:18:43.188Z,76.90
2018-09-20T03:21:10.861Z,76.70
2018-09-20T03:23:38.546Z,76.50
2018-09-20T03:26:06.236Z,76.80
2018-09-20T03:28:35.367Z,76.90
2018-09-20T03:31:03.568Z,76.70
2018-09-20T03:33:32.245Z,77.20
2018-09-20T03:36:01.716Z,76.70
2018-09-20T03:38:30.420Z,76.80
2018-09-20T03:40:59.101Z,77.00
2018-09-20T03:43:26.818Z,77.10
2018-09-20T03:45:54.504Z,77.00
2018-09-20T03:48:23.052Z,76.90
2018-09-20T03:50:51.656Z,76.90
2018-09-20T03:53:20.835Z,76.80
2018-09-20T03:55:50.041Z,76.00
2018-09-20T03:58:17.900Z,75.90
2018-09-20T04:00:45.567Z,75.80
2018-09-20T04:03:14.280Z,75.70
2018-09-20T04:05:42.967Z,74.80
2018-09-20T04:08:11.573Z,74.40
2018-09-20T04:10:40.208Z,74.00
2018-09-20T04:13:07.895Z,73.70
2018-09-20T04:15:35.573Z,73.60
2018-09-20T04:18:03.983Z,73.60
2018-09-20T04:20:31.649Z,73.50
2018-09-20T04:22:59.307Z,73.50
2018-09-20T04:25:27.972Z,73.50
2018-09-20T04:27:56.552Z,73.50
2018-09-20T04:30:24.392Z,73.40
2018-09-20T04:32:52.120Z,73.40
2018-09-20T04:35:20.797Z,73.40
2018-09-20T04:37:49.996Z,73.60
2018-09-20T04:40:18.541Z,73.40
2018-09-20T04:42:47.209Z,73.40
2018-09-20T04:45:14.888Z,73.50
2018-09-20T04:47:42.891Z,73.60
2018-09-20T04:50:10.573Z,73.60
2018-09-20T04:52:39.044Z,73.50
2018-09-20T04:55:06.947Z,73.50
2018-09-20T04:57:35.781Z,73.50
2018-09-20T05:00:06.052Z,73.50
2018-09-20T05:02:36.028Z,73.50
2018-09-20T05:05:06.085Z,73.60
2018-09-20T05:07:34.652Z,73.70
2018-09-20T05:10:03.506Z,73.70
2018-09-20T05:12:31.185Z,73.80
2018-09-20T05:14:59.720Z,73.80
2018-09-20T05:17:28.391Z,73.70
2018-09-20T05:19:57.077Z,73.70
2018-09-20T05:22:24.745Z,73.80
2018-09-20T05:24:53.471Z,73.80
2018-09-20T05:27:22.036Z,73.80
2018-09-20T05:29:51.742Z,73.70
2018-09-20T05:32:20.881Z,73.70
2018-09-20T05:34:50.047Z,73.70
2018-09-20T05:37:18.609Z,73.80
2018-09-20T05:39:47.298Z,73.80
2018-09-20T05:42:16.084Z,73.80
2018-09-20T05:44:43.748Z,73.70
2018-09-20T05:47:11.473Z,73.80
2018-09-20T05:49:40.368Z,74.10
2018-09-20T05:52:08.611Z,73.90
2018-09-20T05:54:36.271Z,74.10
2018-09-20T05:57:05.331Z,74.10
2018-09-20T05:59:34.648Z,74.10
2018-09-20T06:02:04.325Z,74.20
2018-09-20T06:04:32.888Z,74.20
2018-09-20T06:07:01.566Z,74.10
2018-09-20T06:09:29.243Z,74.20
2018-09-20T06:11:56.913Z,74.30
2018-09-20T06:14:24.587Z,74.40
2018-09-20T06:16:52.260Z,74.20
2018-09-20T06:19:21.009Z,74.20
2018-09-20T06:21:48.738Z,74.60
2018-09-20T06:24:17.381Z,74.60
2018-09-20T06:26:45.065Z,74.40
2018-09-20T06:29:12.773Z,74.30
2018-09-20T06:31:40.653Z,74.50
2018-09-20T06:34:08.324Z,74.70
2018-09-20T06:36:36.260Z,74.70
2018-09-20T06:39:07.427Z,75.30
2018-09-20T06:41:35.250Z,74.50
2018-09-20T06:44:02.951Z,74.90
2018-09-20T06:46:30.628Z,74.90
2018-09-20T06:48:59.387Z,75.00
2018-09-20T06:51:27.095Z,75.00
2018-09-20T06:53:55.773Z,75.10
2018-09-20T06:56:24.460Z,75.00
2018-09-20T06:58:52.305Z,75.00
2018-09-20T07:01:21.684Z,75.10
2018-09-20T07:03:50.920Z,75.00
2018-09-20T07:06:18.656Z,75.10
2018-09-20T07:08:46.339Z,75.20
2018-09-20T07:11:15.047Z,75.10
2018-09-20T07:13:43.850Z,75.20
2018-09-20T07:16:11.554Z,75.10
2018-09-20T07:18:40.167Z,75.20
2018-09-20T07:21:08.380Z,75.30
2018-09-20T07:24:03.924Z,75.30
2018-09-20T07:26:33.001Z,75.40
2018-09-20T07:29:00.680Z,75.40
2018-09-20T07:31:29.388Z,75.50
2018-09-20T07:33:58.080Z,75.50
2018-09-20T07:36:26.752Z,75.30
2018-09-20T07:38:54.421Z,75.40
2018-09-20T07:41:22.097Z,75.50
2018-09-20T07:43:50.848Z,75.40
2018-09-20T07:46:18.524Z,75.30
2018-09-20T07:48:46.202Z,75.30
2018-09-20T07:51:14.827Z,75.10
2018-09-20T07:53:43.507Z,75.30
2018-09-20T07:56:12.269Z,75.40
2018-09-20T07:58:40.956Z,75.40
2018-09-20T08:01:08.655Z,75.50
2018-09-20T08:03:36.315Z,75.50
2018-09-20T08:06:05.344Z,75.50
2018-09-20T08:08:35.399Z,75.50
2018-09-20T08:11:04.125Z,75.60
2018-09-20T08:13:33.301Z,75.50
2018-09-20T08:16:03.096Z,75.40
2018-09-20T08:18:32.974Z,75.60
2018-09-20T08:21:00.822Z,75.60
2018-09-20T08:23:28.487Z,75.70
2018-09-20T08:25:57.201Z,75.70
2018-09-20T08:28:25.046Z,75.70
2018-09-20T08:30:52.704Z,75.70
2018-09-20T08:33:21.047Z,75.80
2018-09-20T08:35:48.804Z,75.70
2018-09-20T08:38:16.478Z,75.80
2018-09-20T08:40:44.188Z,75.80
2018-09-20T08:43:11.861Z,75.80
2018-09-20T08:45:39.545Z,75.90
2018-09-20T08:48:07.207Z,75.60
2018-09-20T08:50:34.884Z,75.60
2018-09-20T08:53:03.596Z,75.10
2018-09-20T08:55:33.318Z,74.40
2018-09-20T08:58:02.423Z,74.10
2018-09-20T09:00:31.039Z,73.80
2018-09-20T09:02:59.737Z,73.60
2018-09-20T09:05:28.516Z,73.40
2018-09-20T09:07:57.076Z,73.30
2018-09-20T09:10:25.620Z,73.40
2018-09-20T09:12:53.392Z,73.50
2018-09-20T09:15:21.940Z,73.50
2018-09-20T09:17:51.018Z,73.40
2018-09-20T09:20:18.731Z,73.30
2018-09-20T09:22:47.432Z,73.30
2018-09-20T09:25:22.001Z,72.90
2018-09-20T09:27:50.243Z,73.00
2018-09-20T09:30:17.961Z,73.00
2018-09-20T09:32:46.552Z,73.10
2018-09-20T09:35:14.260Z,73.20
2018-09-20T09:37:42.944Z,73.50
2018-09-20T09:40:10.647Z,73.50
2018-09-20T09:42:39.292Z,73.60
2018-09-20T09:45:06.967Z,73.70
2018-09-20T09:47:35.700Z,73.70
2018-09-20T09:50:04.404Z,73.90
2018-09-20T09:52:33.891Z,73.90
2018-09-20T09:55:03.533Z,73.90
2018-09-20T09:57:33.256Z,74.10
2018-09-20T10:00:01.708Z,74.10
2018-09-20T10:02:30.359Z,74.20
2018-09-20T10:04:58.008Z,74.10
2018-09-20T10:07:26.726Z,74.00
2018-09-20T10:09:55.480Z,73.90
2018-09-20T10:12:24.173Z,74.10
2018-09-20T10:14:52.761Z,74.00
2018-09-20T10:17:22.028Z,74.00
2018-09-20T10:19:51.813Z,74.00
2018-09-20T10:22:21.219Z,73.90
2018-09-20T10:24:48.905Z,73.70
2018-09-20T10:27:17.508Z,73.40
2018-09-20T10:29:46.196Z,73.50
2018-09-20T10:32:14.901Z,73.70
2018-09-20T10:34:43.592Z,73.70
2018-09-20T10:37:12.313Z,73.40
2018-09-20T10:39:40.998Z,73.30
2018-09-20T10:42:09.596Z,73.60
2018-09-20T10:44:37.813Z,73.30
2018-09-20T10:47:06.416Z,73.20
2018-09-20T10:49:36.108Z,73.30
2018-09-20T10:52:04.688Z,73.40
2018-09-20T10:54:33.372Z,73.30
2018-09-20T10:57:04.864Z,73.70
2018-09-20T10:59:37.597Z,73.70
2018-09-20T11:02:06.329Z,74.10
2018-09-20T11:04:36.104Z,74.00
2018-09-20T11:07:04.824Z,73.80
2018-09-20T11:09:34.217Z,73.80
2018-09-20T11:12:02.540Z,73.80
2018-09-20T11:14:31.145Z,73.70
2018-09-20T11:16:59.829Z,73.60
2018-09-20T11:19:28.538Z,73.50
2018-09-20T11:21:57.220Z,73.50
2018-09-20T11:24:25.828Z,73.70
2018-09-20T11:26:54.375Z,74.30
2018-09-20T11:29:22.418Z,73.90
2018-09-20T11:31:51.064Z,74.00
2018-09-20T11:34:20.205Z,73.90
2018-09-20T11:36:48.983Z,73.90
2018-09-20T11:39:17.533Z,74.00
2018-09-20T11:41:46.242Z,73.90
2018-09-20T11:44:15.008Z,73.90
2018-09-20T11:46:43.786Z,73.60
2018-09-20T11:49:12.450Z,73.70
2018-09-20T11:51:40.876Z,74.10
2018-09-20T11:54:08.550Z,73.90
2018-09-20T11:56:37.248Z,73.90
2018-09-20T11:59:04.916Z,74.10
2018-09-20T12:01:33.489Z,74.50
2018-09-20T12:04:04.202Z,74.80
2018-09-20T12:06:32.424Z,74.10
2018-09-20T12:09:00.118Z,74.00
2018-09-20T12:11:27.792Z,74.20
2018-09-20T12:13:55.473Z,74.00
2018-09-20T12:16:23.148Z,74.00
2018-09-20T12:18:51.898Z,74.10
2018-09-20T12:21:20.415Z,74.40
2018-09-20T12:23:48.100Z,74.40
2018-09-20T12:26:15.802Z,74.40
2018-09-20T12:28:43.485Z,74.60
2018-09-20T12:31:11.160Z,74.50
2018-09-20T12:33:38.833Z,74.40
2018-09-20T12:36:07.187Z,74.80
2018-09-20T12:38:34.873Z,74.80
2018-09-20T12:41:03.653Z,74.90
2018-09-20T12:43:31.324Z,74.70
2018-09-20T12:45:59.009Z,74.80
2018-09-20T12:48:26.695Z,74.90
2018-09-20T12:50:54.381Z,74.90
2018-09-20T12:53:22.087Z,74.90
2018-09-20T12:55:50.321Z,75.00
2018-09-20T12:58:18.044Z,75.60
2018-09-20T13:00:45.751Z,74.90
2018-09-20T13:03:13.432Z,75.00
2018-09-20T13:05:41.103Z,75.00
2018-09-20T13:08:08.768Z,75.00
2018-09-20T13:10:36.452Z,74.90
2018-09-20T13:13:05.193Z,75.10
2018-09-20T13:15:33.756Z,75.10
2018-09-20T13:18:01.444Z,75.10
2018-09-20T13:20:29.231Z,75.20
2018-09-20T13:22:57.259Z,74.90
2018-09-20T13:25:24.984Z,75.20
2018-09-20T13:27:52.653Z,75.20
2018-09-20T13:30:22.684Z,75.20
2018-09-20T13:32:51.160Z,75.20
2018-09-20T13:35:20.347Z,75.10
2018-09-20T13:37:49.031Z,75.20
2018-09-20T13:40:16.716Z,75.10
2018-09-20T13:42:44.391Z,75.00
2018-09-20T13:45:12.104Z,74.90
2018-09-20T13:47:39.812Z,75.10
2018-09-20T13:50:08.631Z,75.30
2018-09-20T13:52:37.296Z,75.20
2018-09-20T13:55:06.008Z,75.30
2018-09-20T13:57:34.676Z,75.30
2018-09-20T14:00:04.000Z,75.20
2018-09-20T14:02:34.737Z,75.40
2018-09-20T14:05:04.528Z,75.90
2018-09-20T14:07:34.340Z,75.50
2018-09-20T14:10:04.469Z,75.50
2018-09-20T14:12:34.004Z,75.40
2018-09-20T14:15:03.841Z,75.40
2018-09-20T14:17:33.872Z,75.30
2018-09-20T14:20:03.671Z,75.50
2018-09-20T14:22:31.381Z,75.50
2018-09-20T14:24:59.944Z,75.30
2018-09-20T14:27:28.625Z,75.50
2018-09-20T14:29:57.317Z,75.60
2018-09-20T14:32:25.972Z,75.50
2018-09-20T14:34:54.824Z,75.40
2018-09-20T14:37:23.502Z,75.50
2018-09-20T14:39:52.124Z,75.70
2018-09-20T14:42:20.472Z,75.50
2018-09-20T14:44:49.136Z,75.60
2018-09-20T14:47:16.807Z,75.50
2018-09-20T14:49:45.348Z,75.40
2018-09-20T14:52:13.015Z,75.50
2018-09-20T14:54:41.565Z,76.20
2018-09-20T14:57:09.234Z,75.60
2018-09-20T14:59:37.839Z,75.70
2018-09-20T15:02:06.568Z,75.70
2018-09-20T15:04:35.263Z,75.50
2018-09-20T15:07:05.370Z,75.60
2018-09-20T15:09:35.516Z,75.70
2018-09-20T15:12:04.184Z,75.70
2018-09-20T15:14:32.849Z,75.80
2018-09-20T15:17:01.544Z,75.70
2018-09-20T15:19:30.331Z,75.80
2018-09-20T15:21:59.080Z,75.70
2018-09-20T15:24:27.653Z,75.90
2018-09-20T15:26:56.382Z,76.00
2018-09-20T15:29:25.070Z,76.40
2018-09-20T15:31:53.755Z,76.00
2018-09-20T15:34:22.420Z,76.00
2018-09-20T15:36:51.552Z,75.90
2018-09-20T15:39:19.200Z,75.90
2018-09-20T15:41:47.765Z,76.00
2018-09-20T15:44:15.442Z,76.00
2018-09-20T15:46:43.121Z,76.00
2018-09-20T15:49:11.697Z,76.10
2018-09-20T15:51:39.473Z,76.20
2018-09-20T15:54:07.140Z,76.10
2018-09-20T15:56:34.867Z,76.10
2018-09-20T15:59:03.511Z,76.10
2018-09-20T16:01:31.173Z,76.20
2018-09-20T16:03:58.832Z,76.20
2018-09-20T16:06:27.561Z,76.20
2018-09-20T16:08:55.228Z,76.00
2018-09-20T16:11:22.888Z,76.20
2018-09-20T16:13:51.319Z,76.40
2018-09-20T16:16:18.985Z,76.20
2018-09-20T16:18:47.688Z,76.10
2018-09-20T16:21:15.488Z,76.30
2018-09-20T16:23:45.244Z,76.40
2018-09-20T16:26:13.962Z,76.30
2018-09-20T16:28:48.371Z,76.40
2018-09-20T16:32:23.654Z,76.40
2018-09-20T16:35:03.148Z,76.40
2018-09-20T16:37:54.112Z,76.60
2018-09-20T16:40:23.683Z,76.60
2018-09-20T16:42:52.292Z,76.70
2018-09-20T16:45:20.453Z,76.60
2018-09-20T16:47:48.119Z,76.20
2018-09-20T16:50:16.791Z,76.90
2018-09-20T16:52:45.469Z,76.50
2018-09-20T16:55:13.171Z,76.50
2018-09-20T16:57:41.632Z,76.50
2018-09-20T17:00:10.848Z,76.50
2018-09-20T17:02:39.936Z,76.40
2018-09-20T17:05:07.695Z,76.30
2018-09-20T17:07:35.356Z,76.20
2018-09-20T17:10:04.215Z,76.40
2018-09-20T17:12:33.350Z,76.40
2018-09-20T17:15:03.263Z,76.40
2018-09-20T17:17:32.486Z,76.40
2018-09-20T17:20:00.487Z,76.40
2018-09-20T17:22:28.187Z,76.40
2018-09-20T17:24:56.888Z,76.40
2018-09-20T17:27:25.864Z,76.40
2018-09-20T17:29:54.784Z,76.40
2018-09-20T17:32:22.547Z,76.40
2018-09-20T17:34:51.357Z,77.00
2018-09-20T17:37:21.292Z,76.50
2018-09-20T17:39:51.565Z,76.20
2018-09-20T17:42:21.330Z,76.40
2018-09-20T17:44:48.996Z,75.90
2018-09-20T17:47:17.686Z,75.50
2018-09-20T17:49:46.360Z,75.20
2018-09-20T17:52:15.187Z,75.10
2018-09-20T17:57:17.500Z,74.50
2018-09-20T17:59:45.233Z,74.40
2018-09-20T18:02:13.030Z,74.50
2018-09-20T18:04:40.732Z,74.40
2018-09-20T18:07:08.981Z,74.40
2018-09-20T18:09:36.708Z,74.50
2018-09-20T18:12:04.933Z,74.40
2018-09-20T18:14:36.112Z,74.50
2018-09-20T18:17:04.408Z,74.50
2018-09-20T18:19:32.120Z,74.50
2018-09-20T18:22:03.401Z,74.50
2018-09-20T18:24:31.133Z,74.50
2018-09-20T18:26:59.699Z,74.60
2018-09-20T18:29:27.383Z,74.70
2018-09-20T18:31:55.115Z,74.70
2018-09-20T18:34:22.843Z,74.70
2018-09-20T18:36:51.358Z,74.80
2018-09-20T18:39:20.529Z,74.80
2018-09-20T18:41:48.241Z,74.80
2018-09-20T18:44:16.870Z,75.00
2018-09-20T18:46:45.599Z,75.00
2018-09-20T18:49:14.355Z,75.10
2018-09-20T18:51:49.724Z,75.10
2018-09-20T18:54:18.008Z,75.10
2018-09-20T18:56:45.685Z,75.00
2018-09-20T18:59:14.405Z,75.00
2018-09-20T19:01:43.089Z,75.00
2018-09-20T19:04:10.796Z,75.00
2018-09-20T19:06:39.609Z,75.00
2018-09-20T19:09:08.489Z,75.00
2018-09-20T19:11:36.212Z,75.10
2018-09-20T19:14:04.552Z,75.90
2018-09-20T19:16:33.191Z,75.20
2018-09-20T19:19:00.922Z,75.20
2018-09-20T19:21:29.599Z,75.90
2018-09-20T19:23:58.219Z,75.30
2018-09-20T19:26:26.820Z,75.40
2018-09-20T19:28:54.511Z,75.40
2018-09-20T19:31:22.469Z,75.20
2018-09-20T19:33:51.752Z,75.30
2018-09-20T19:36:19.419Z,75.20
2018-09-20T19:38:47.103Z,75.30
2018-09-20T19:41:15.687Z,75.30
2018-09-20T19:43:44.360Z,75.40
2018-09-20T19:46:12.078Z,75.50
2018-09-20T19:48:39.772Z,75.40
2018-09-20T19:51:08.497Z,75.50
2018-09-20T19:53:36.353Z,76.20
2018-09-20T19:56:06.260Z,75.50
2018-09-20T19:58:35.979Z,76.30
2018-09-20T20:01:04.651Z,75.60
2018-09-20T20:03:33.904Z,75.70
2018-09-20T20:06:02.753Z,75.60
2018-09-20T20:08:31.598Z,75.60
2018-09-20T20:11:00.208Z,75.60
2018-09-20T20:13:28.917Z,76.00
2018-09-20T20:15:57.618Z,75.70
2018-09-20T20:18:26.330Z,75.80
2018-09-20T20:20:54.872Z,75.70
2018-09-20T20:23:22.580Z,75.70
2018-09-20T20:25:52.468Z,75.90
2018-09-20T20:28:21.467Z,75.90
2018-09-20T20:30:49.288Z,75.90
2018-09-20T20:33:17.653Z,75.80
2018-09-20T20:35:45.447Z,75.90
2018-09-20T20:38:13.294Z,76.00
2018-09-20T20:40:41.084Z,76.00
2018-09-20T20:43:08.811Z,76.00
2018-09-20T20:45:36.530Z,76.80
2018-09-20T20:48:04.216Z,76.10
2018-09-20T20:50:31.900Z,76.10
2018-09-20T20:53:00.477Z,76.10
2018-09-20T20:55:29.064Z,76.10
2018-09-20T20:57:57.082Z,76.00
2018-09-20T21:00:24.760Z,76.10
2018-09-20T21:02:53.008Z,76.00
2018-09-20T21:05:21.556Z,76.10
2018-09-20T21:07:49.241Z,76.10
2018-09-20T21:10:16.905Z,76.20
2018-09-20T21:12:44.612Z,76.10
2018-09-20T21:15:12.273Z,76.30
2018-09-20T21:17:40.064Z,76.20
2018-09-20T21:20:07.776Z,76.40
2018-09-20T21:22:35.431Z,76.30
2018-09-20T21:25:03.092Z,76.30
2018-09-20T21:27:30.779Z,76.30
2018-09-20T21:29:59.881Z,76.30
2018-09-20T21:32:27.544Z,76.40
2018-09-20T21:34:55.220Z,76.40
2018-09-20T21:37:22.937Z,76.40
2018-09-20T21:39:50.634Z,76.40
2018-09-20T21:42:18.301Z,76.40
2018-09-20T21:44:45.972Z,76.40
2018-09-20T21:47:14.921Z,76.40
2018-09-20T21:49:42.588Z,76.50
2018-09-20T21:52:10.259Z,76.50
2018-09-20T21:54:38.020Z,76.40
2018-09-20T21:57:05.685Z,76.40
2018-09-20T21:59:33.348Z,76.40
2018-09-20T22:02:01.547Z,76.30
2018-09-20T22:04:30.435Z,76.40
2018-09-20T22:06:59.428Z,76.20
2018-09-20T22:09:27.095Z,76.30
2018-09-20T22:11:54.812Z,76.20
2018-09-20T22:14:22.484Z,76.20
2018-09-20T22:16:50.724Z,76.20
2018-09-20T22:19:18.396Z,76.00
2018-09-20T22:21:46.079Z,76.20
2018-09-20T22:24:13.749Z,76.10
2018-09-20T22:26:41.424Z,76.10
2018-09-20T22:29:09.091Z,76.20
2018-09-20T22:31:36.949Z,76.60
2018-09-20T22:34:04.620Z,76.30
2018-09-20T22:36:32.320Z,76.30
2018-09-20T22:39:00.984Z,76.10
2018-09-20T22:41:29.369Z,75.90
2018-09-20T22:43:57.048Z,75.80
2018-09-20T22:46:25.733Z,75.80
2018-09-20T22:48:53.423Z,75.80
2018-09-20T22:51:21.816Z,75.70
2018-09-20T22:53:49.484Z,76.20
2018-09-20T22:56:17.149Z,75.80
2018-09-20T22:58:44.955Z,75.90
2018-09-20T23:01:16.771Z,75.80
2018-09-20T23:03:44.903Z,75.80
2018-09-20T23:06:13.586Z,75.80
2018-09-20T23:08:42.288Z,76.10
2018-09-20T23:11:10.968Z,76.10
2018-09-20T23:13:39.504Z,75.90
2018-09-20T23:16:07.163Z,75.90
2018-09-20T23:18:34.839Z,76.00
2018-09-20T23:21:02.520Z,75.90
2018-09-20T23:23:30.694Z,75.90
2018-09-20T23:25:58.400Z,76.00
2018-09-20T23:28:26.062Z,76.00
2018-09-20T23:30:53.731Z,76.00
2018-09-20T23:33:21.501Z,76.00
2018-09-20T23:35:49.182Z,76.70
2018-09-20T23:38:16.860Z,76.10
2018-09-20T23:40:44.552Z,76.00
2018-09-20T23:43:12.215Z,75.90
2018-09-20T23:45:39.908Z,75.90
2018-09-20T23:48:08.480Z,76.00
2018-09-20T23:50:36.151Z,75.90
2018-09-20T23:53:03.820Z,75.90
2018-09-20T23:55:32.395Z,76.10
2018-09-20T23:58:00.719Z,76.10
